sensor_id;sensor_type;location;lat;lon;timestamp;P1;durP1;ratioP1;P2;durP2;ratioP2
6109;SDS011;3085;49.444;11.054;2023-12-14T00:00:25;8.87;;;3.37;;
6109;SDS011;3085;49.444;11.054;2023-12-14T00:02:52;4.83;;;2.93;;
6109;SDS011;3085;49.444;11.054;2023-12-14T00:05:19;9.13;;;3.60;;
6109;SDS011;3085;49.444;11.054;2023-12-14T00:07:45;13.83;;;3.43;;
6109;SDS011;3085;49.444;11.054;2023-12-14T00:10:13;3.10;;;2.47;;
6109;SDS011;3085;49.444;11.054;2023-12-14T00:12:42;7.97;;;3.70;;
6109;SDS011;3085;49.444;11.054;2023-12-14T00:15:09;6.43;;;3.77;;
6109;SDS011;3085;49.444;11.054;2023-12-14T00:17:36;7.90;;;3.37;;
6109;SDS011;3085;49.444;11.054;2023-12-14T00:20:03;9.50;;;5.03;;
6109;SDS011;3085;49.444;11.054;2023-12-14T00:22:30;8.50;;;4.90;;
6109;SDS011;3085;49.444;11.054;2023-12-14T00:24:57;4.47;;;3.30;;
6109;SDS011;3085;49.444;11.054;2023-12-14T00:27:25;7.27;;;3.70;;
6109;SDS011;3085;49.444;11.054;2023-12-14T00:29:51;4.20;;;2.97;;
6109;SDS011;3085;49.444;11.054;2023-12-14T00:32:18;7.73;;;3.60;;
6109;SDS011;3085;49.444;11.054;2023-12-14T00:34:45;15.90;;;4.63;;
6109;SDS011;3085;49.444;11.054;2023-12-14T00:37:11;6.80;;;3.20;;
6109;SDS011;3085;49.444;11.054;2023-12-14T00:39:38;15.73;;;3.93;;
6109;SDS011;3085;49.444;11.054;2023-12-14T00:42:05;12.73;;;3.33;;
6109;SDS011;3085;49.444;11.054;2023-12-14T00:44:33;8.53;;;4.00;;
6109;SDS011;3085;49.444;11.054;2023-12-14T00:46:59;8.40;;;4.73;;
6109;SDS011;3085;49.444;11.054;2023-12-14T00:49:27;5.23;;;3.40;;
6109;SDS011;3085;49.444;11.054;2023-12-14T00:51:54;6.60;;;3.50;;
6109;SDS011;3085;49.444;11.054;2023-12-14T00:54:21;4.23;;;2.80;;
6109;SDS011;3085;49.444;11.054;2023-12-14T00:56:47;9.13;;;3.27;;
6109;SDS011;3085;49.444;11.054;2023-12-14T00:59:14;7.03;;;3.40;;
6109;SDS011;3085;49.444;11.054;2023-12-14T01:01:42;5.80;;;3.30;;
6109;SDS011;3085;49.444;11.054;2023-12-14T01:04:09;16.47;;;3.40;;
6109;SDS011;3085;49.444;11.054;2023-12-14T01:06:35;5.27;;;3.03;;
6109;SDS011;3085;49.444;11.054;2023-12-14T01:09:02;5.63;;;3.60;;
6109;SDS011;3085;49.444;11.054;2023-12-14T01:11:29;5.80;;;3.00;;
6109;SDS011;3085;49.444;11.054;2023-12-14T01:13:55;13.40;;;4.93;;
6109;SDS011;3085;49.444;11.054;2023-12-14T01:16:25;8.87;;;4.10;;
6109;SDS011;3085;49.444;11.054;2023-12-14T01:18:53;6.03;;;3.40;;
6109;SDS011;3085;49.444;11.054;2023-12-14T01:21:20;14.23;;;5.13;;
6109;SDS011;3085;49.444;11.054;2023-12-14T01:23:47;9.10;;;3.60;;
6109;SDS011;3085;49.444;11.054;2023-12-14T01:26:14;8.97;;;4.13;;
6109;SDS011;3085;49.444;11.054;2023-12-14T01:28:40;4.70;;;3.30;;
6109;SDS011;3085;49.444;11.054;2023-12-14T01:31:10;13.93;;;3.80;;
6109;SDS011;3085;49.444;11.054;2023-12-14T01:33:37;8.00;;;3.80;;
6109;SDS011;3085;49.444;11.054;2023-12-14T01:36:06;7.00;;;3.90;;
6109;SDS011;3085;49.444;11.054;2023-12-14T01:38:33;5.37;;;3.77;;
6109;SDS011;3085;49.444;11.054;2023-12-14T01:40:59;5.40;;;3.87;;
6109;SDS011;3085;49.444;11.054;2023-12-14T01:43:27;8.60;;;4.40;;
6109;SDS011;3085;49.444;11.054;2023-12-14T01:45:53;5.43;;;3.60;;
6109;SDS011;3085;49.444;11.054;2023-12-14T01:48:20;7.27;;;4.10;;
6109;SDS011;3085;49.444;11.054;2023-12-14T01:50:47;6.50;;;3.90;;
6109;SDS011;3085;49.444;11.054;2023-12-14T01:53:16;11.83;;;4.00;;
6109;SDS011;3085;49.444;11.054;2023-12-14T01:55:42;8.00;;;4.73;;
6109;SDS011;3085;49.444;11.054;2023-12-14T01:58:09;7.50;;;4.20;;
6109;SDS011;3085;49.444;11.054;2023-12-14T02:00:36;7.47;;;4.23;;
6109;SDS011;3085;49.444;11.054;2023-12-14T02:03:07;7.67;;;3.97;;
6109;SDS011;3085;49.444;11.054;2023-12-14T02:05:33;7.20;;;4.00;;
6109;SDS011;3085;49.444;11.054;2023-12-14T02:08:00;7.03;;;4.13;;
6109;SDS011;3085;49.444;11.054;2023-12-14T02:10:28;7.43;;;5.03;;
6109;SDS011;3085;49.444;11.054;2023-12-14T02:12:55;6.57;;;3.60;;
6109;SDS011;3085;49.444;11.054;2023-12-14T02:15:22;8.67;;;4.30;;
6109;SDS011;3085;49.444;11.054;2023-12-14T02:17:49;10.07;;;4.90;;
6109;SDS011;3085;49.444;11.054;2023-12-14T02:20:16;6.60;;;3.60;;
6109;SDS011;3085;49.444;11.054;2023-12-14T02:22:50;7.60;;;4.20;;
6109;SDS011;3085;49.444;11.054;2023-12-14T02:25:17;15.50;;;6.47;;
6109;SDS011;3085;49.444;11.054;2023-12-14T02:27:47;9.87;;;4.30;;
6109;SDS011;3085;49.444;11.054;2023-12-14T02:30:15;9.27;;;4.40;;
6109;SDS011;3085;49.444;11.054;2023-12-14T02:32:42;9.93;;;4.33;;
6109;SDS011;3085;49.444;11.054;2023-12-14T02:35:09;10.83;;;5.10;;
6109;SDS011;3085;49.444;11.054;2023-12-14T02:37:36;8.93;;;4.73;;
6109;SDS011;3085;49.444;11.054;2023-12-14T02:40:07;9.20;;;5.40;;
6109;SDS011;3085;49.444;11.054;2023-12-14T02:42:37;9.60;;;4.80;;
6109;SDS011;3085;49.444;11.054;2023-12-14T02:45:04;7.83;;;4.20;;
6109;SDS011;3085;49.444;11.054;2023-12-14T02:47:34;14.33;;;5.17;;
6109;SDS011;3085;49.444;11.054;2023-12-14T02:50:01;17.03;;;6.03;;
6109;SDS011;3085;49.444;11.054;2023-12-14T02:52:28;12.03;;;4.83;;
6109;SDS011;3085;49.444;11.054;2023-12-14T02:54:55;8.13;;;4.43;;
6109;SDS011;3085;49.444;11.054;2023-12-14T02:57:23;13.10;;;4.60;;
6109;SDS011;3085;49.444;11.054;2023-12-14T02:59:49;8.03;;;5.07;;
6109;SDS011;3085;49.444;11.054;2023-12-14T03:02:16;10.40;;;5.63;;
6109;SDS011;3085;49.444;11.054;2023-12-14T03:04:42;12.00;;;4.90;;
6109;SDS011;3085;49.444;11.054;2023-12-14T03:07:09;10.23;;;5.53;;
6109;SDS011;3085;49.444;11.054;2023-12-14T03:09:38;8.97;;;4.73;;
6109;SDS011;3085;49.444;11.054;2023-12-14T03:12:06;10.30;;;4.63;;
6109;SDS011;3085;49.444;11.054;2023-12-14T03:14:34;8.50;;;4.97;;
6109;SDS011;3085;49.444;11.054;2023-12-14T03:17:01;8.93;;;4.87;;
6109;SDS011;3085;49.444;11.054;2023-12-14T03:19:28;11.00;;;4.40;;
6109;SDS011;3085;49.444;11.054;2023-12-14T03:21:54;12.37;;;5.67;;
6109;SDS011;3085;49.444;11.054;2023-12-14T03:24:21;13.77;;;5.20;;
6109;SDS011;3085;49.444;11.054;2023-12-14T03:26:48;12.60;;;5.63;;
6109;SDS011;3085;49.444;11.054;2023-12-14T03:29:14;8.90;;;4.73;;
6109;SDS011;3085;49.444;11.054;2023-12-14T03:31:42;10.63;;;4.97;;
6109;SDS011;3085;49.444;11.054;2023-12-14T03:34:09;14.83;;;6.10;;
6109;SDS011;3085;49.444;11.054;2023-12-14T03:36:36;12.33;;;5.40;;
6109;SDS011;3085;49.444;11.054;2023-12-14T03:39:03;8.03;;;5.00;;
6109;SDS011;3085;49.444;11.054;2023-12-14T03:41:29;16.60;;;6.47;;
6109;SDS011;3085;49.444;11.054;2023-12-14T03:43:56;10.87;;;5.70;;
6109;SDS011;3085;49.444;11.054;2023-12-14T03:46:23;11.87;;;5.87;;
6109;SDS011;3085;49.444;11.054;2023-12-14T03:48:51;12.23;;;6.27;;
6109;SDS011;3085;49.444;11.054;2023-12-14T03:51:18;12.67;;;5.80;;
6109;SDS011;3085;49.444;11.054;2023-12-14T03:53:46;13.57;;;5.80;;
6109;SDS011;3085;49.444;11.054;2023-12-14T03:56:12;14.70;;;6.40;;
6109;SDS011;3085;49.444;11.054;2023-12-14T03:58:39;12.83;;;6.60;;
6109;SDS011;3085;49.444;11.054;2023-12-14T04:01:06;13.57;;;7.43;;
6109;SDS011;3085;49.444;11.054;2023-12-14T04:03:32;18.73;;;7.43;;
6109;SDS011;3085;49.444;11.054;2023-12-14T04:06:00;13.77;;;7.20;;
6109;SDS011;3085;49.444;11.054;2023-12-14T04:08:27;12.60;;;6.03;;
6109;SDS011;3085;49.444;11.054;2023-12-14T04:10:54;14.27;;;6.03;;
6109;SDS011;3085;49.444;11.054;2023-12-14T04:13:20;12.97;;;5.60;;
6109;SDS011;3085;49.444;11.054;2023-12-14T04:15:46;11.60;;;6.53;;
6109;SDS011;3085;49.444;11.054;2023-12-14T04:18:13;12.47;;;7.13;;
6109;SDS011;3085;49.444;11.054;2023-12-14T04:20:39;14.93;;;7.10;;
6109;SDS011;3085;49.444;11.054;2023-12-14T04:23:07;19.47;;;7.00;;
6109;SDS011;3085;49.444;11.054;2023-12-14T04:25:34;11.57;;;5.90;;
6109;SDS011;3085;49.444;11.054;2023-12-14T04:28:00;9.80;;;5.17;;
6109;SDS011;3085;49.444;11.054;2023-12-14T04:30:27;12.03;;;6.40;;
6109;SDS011;3085;49.444;11.054;2023-12-14T04:32:54;10.10;;;6.00;;
6109;SDS011;3085;49.444;11.054;2023-12-14T04:35:20;10.10;;;5.30;;
6109;SDS011;3085;49.444;11.054;2023-12-14T04:37:48;9.97;;;5.50;;
6109;SDS011;3085;49.444;11.054;2023-12-14T04:40:16;13.20;;;5.70;;
6109;SDS011;3085;49.444;11.054;2023-12-14T04:42:42;11.30;;;5.60;;
6109;SDS011;3085;49.444;11.054;2023-12-14T04:45:09;12.20;;;5.90;;
6109;SDS011;3085;49.444;11.054;2023-12-14T04:47:37;9.23;;;5.70;;
6109;SDS011;3085;49.444;11.054;2023-12-14T04:50:05;14.37;;;5.87;;
6109;SDS011;3085;49.444;11.054;2023-12-14T04:52:32;14.37;;;6.00;;
6109;SDS011;3085;49.444;11.054;2023-12-14T04:54:59;10.60;;;4.30;;
6109;SDS011;3085;49.444;11.054;2023-12-14T04:57:27;18.40;;;6.00;;
6109;SDS011;3085;49.444;11.054;2023-12-14T04:59:56;19.83;;;6.00;;
6109;SDS011;3085;49.444;11.054;2023-12-14T05:02:23;17.77;;;6.03;;
6109;SDS011;3085;49.444;11.054;2023-12-14T05:04:50;10.70;;;5.43;;
6109;SDS011;3085;49.444;11.054;2023-12-14T05:07:16;11.50;;;6.03;;
6109;SDS011;3085;49.444;11.054;2023-12-14T05:09:43;12.80;;;6.10;;
6109;SDS011;3085;49.444;11.054;2023-12-14T05:12:10;15.83;;;6.17;;
6109;SDS011;3085;49.444;11.054;2023-12-14T05:14:38;12.17;;;6.33;;
6109;SDS011;3085;49.444;11.054;2023-12-14T05:17:04;12.87;;;6.17;;
6109;SDS011;3085;49.444;11.054;2023-12-14T05:19:32;19.93;;;6.20;;
6109;SDS011;3085;49.444;11.054;2023-12-14T05:21:58;17.00;;;6.50;;
6109;SDS011;3085;49.444;11.054;2023-12-14T05:24:25;15.40;;;6.80;;
6109;SDS011;3085;49.444;11.054;2023-12-14T05:26:52;9.43;;;5.40;;
6109;SDS011;3085;49.444;11.054;2023-12-14T05:29:18;21.03;;;7.20;;
6109;SDS011;3085;49.444;11.054;2023-12-14T05:31:48;17.97;;;6.40;;
6109;SDS011;3085;49.444;11.054;2023-12-14T05:34:15;14.10;;;5.20;;
6109;SDS011;3085;49.444;11.054;2023-12-14T05:36:42;11.93;;;5.70;;
6109;SDS011;3085;49.444;11.054;2023-12-14T05:39:09;14.53;;;6.33;;
6109;SDS011;3085;49.444;11.054;2023-12-14T05:41:39;13.93;;;6.20;;
6109;SDS011;3085;49.444;11.054;2023-12-14T05:44:06;11.70;;;6.00;;
6109;SDS011;3085;49.444;11.054;2023-12-14T05:46:33;13.20;;;6.50;;
6109;SDS011;3085;49.444;11.054;2023-12-14T05:49:05;16.20;;;6.10;;
6109;SDS011;3085;49.444;11.054;2023-12-14T05:51:34;18.57;;;6.27;;
6109;SDS011;3085;49.444;11.054;2023-12-14T05:54:04;14.93;;;8.17;;
6109;SDS011;3085;49.444;11.054;2023-12-14T05:56:34;11.67;;;5.00;;
6109;SDS011;3085;49.444;11.054;2023-12-14T05:59:02;13.70;;;6.70;;
6109;SDS011;3085;49.444;11.054;2023-12-14T06:01:29;17.63;;;7.23;;
6109;SDS011;3085;49.444;11.054;2023-12-14T06:03:57;14.33;;;5.60;;
6109;SDS011;3085;49.444;11.054;2023-12-14T06:06:28;11.30;;;5.67;;
6109;SDS011;3085;49.444;11.054;2023-12-14T06:08:58;15.90;;;7.10;;
6109;SDS011;3085;49.444;11.054;2023-12-14T06:11:27;15.20;;;6.27;;
6109;SDS011;3085;49.444;11.054;2023-12-14T06:13:54;17.97;;;6.50;;
6109;SDS011;3085;49.444;11.054;2023-12-14T06:16:20;20.00;;;7.20;;
6109;SDS011;3085;49.444;11.054;2023-12-14T06:18:47;16.17;;;7.43;;
6109;SDS011;3085;49.444;11.054;2023-12-14T06:21:14;19.87;;;7.97;;
6109;SDS011;3085;49.444;11.054;2023-12-14T06:23:42;24.80;;;8.10;;
6109;SDS011;3085;49.444;11.054;2023-12-14T06:26:08;16.23;;;7.47;;
6109;SDS011;3085;49.444;11.054;2023-12-14T06:28:35;16.97;;;7.97;;
6109;SDS011;3085;49.444;11.054;2023-12-14T06:31:02;19.97;;;8.07;;
6109;SDS011;3085;49.444;11.054;2023-12-14T06:33:28;19.77;;;8.40;;
6109;SDS011;3085;49.444;11.054;2023-12-14T06:35:57;20.90;;;8.23;;
6109;SDS011;3085;49.444;11.054;2023-12-14T06:38:23;14.43;;;7.20;;
6109;SDS011;3085;49.444;11.054;2023-12-14T06:40:52;18.13;;;9.23;;
6109;SDS011;3085;49.444;11.054;2023-12-14T06:43:18;17.10;;;7.60;;
6109;SDS011;3085;49.444;11.054;2023-12-14T06:45:45;18.90;;;8.80;;
6109;SDS011;3085;49.444;11.054;2023-12-14T06:48:11;15.90;;;6.80;;
6109;SDS011;3085;49.444;11.054;2023-12-14T06:50:38;19.03;;;7.43;;
6109;SDS011;3085;49.444;11.054;2023-12-14T06:53:05;18.87;;;7.30;;
6109;SDS011;3085;49.444;11.054;2023-12-14T06:55:31;14.40;;;7.33;;
6109;SDS011;3085;49.444;11.054;2023-12-14T06:57:59;19.57;;;7.43;;
6109;SDS011;3085;49.444;11.054;2023-12-14T07:00:26;16.90;;;6.70;;
6109;SDS011;3085;49.444;11.054;2023-12-14T07:02:54;15.37;;;6.83;;
6109;SDS011;3085;49.444;11.054;2023-12-14T07:05:21;24.20;;;8.50;;
6109;SDS011;3085;49.444;11.054;2023-12-14T07:07:47;17.40;;;7.63;;
6109;SDS011;3085;49.444;11.054;2023-12-14T07:10:14;19.40;;;7.50;;
6109;SDS011;3085;49.444;11.054;2023-12-14T07:12:42;20.23;;;7.27;;
6109;SDS011;3085;49.444;11.054;2023-12-14T07:15:11;36.63;;;7.90;;
6109;SDS011;3085;49.444;11.054;2023-12-14T07:17:37;17.83;;;9.00;;
6109;SDS011;3085;49.444;11.054;2023-12-14T07:20:05;14.20;;;7.07;;
6109;SDS011;3085;49.444;11.054;2023-12-14T07:22:33;17.17;;;7.10;;
6109;SDS011;3085;49.444;11.054;2023-12-14T07:24:59;23.30;;;8.40;;
6109;SDS011;3085;49.444;11.054;2023-12-14T07:27:26;22.90;;;8.63;;
6109;SDS011;3085;49.444;11.054;2023-12-14T07:29:53;22.33;;;8.97;;
6109;SDS011;3085;49.444;11.054;2023-12-14T07:32:21;25.03;;;8.93;;
6109;SDS011;3085;49.444;11.054;2023-12-14T07:34:48;21.70;;;7.70;;
6109;SDS011;3085;49.444;11.054;2023-12-14T07:37:15;20.23;;;7.53;;
6109;SDS011;3085;49.444;11.054;2023-12-14T07:39:41;18.50;;;8.07;;
6109;SDS011;3085;49.444;11.054;2023-12-14T07:42:08;29.00;;;8.00;;
6109;SDS011;3085;49.444;11.054;2023-12-14T07:44:34;17.70;;;7.43;;
6109;SDS011;3085;49.444;11.054;2023-12-14T07:47:02;22.10;;;9.07;;
6109;SDS011;3085;49.444;11.054;2023-12-14T07:49:30;23.23;;;7.63;;
6109;SDS011;3085;49.444;11.054;2023-12-14T07:51:57;23.13;;;8.57;;
6109;SDS011;3085;49.444;11.054;2023-12-14T07:54:24;20.03;;;8.40;;
6109;SDS011;3085;49.444;11.054;2023-12-14T07:56:51;22.40;;;8.30;;
6109;SDS011;3085;49.444;11.054;2023-12-14T07:59:18;19.63;;;8.20;;
6109;SDS011;3085;49.444;11.054;2023-12-14T08:01:45;14.87;;;7.83;;
6109;SDS011;3085;49.444;11.054;2023-12-14T08:04:12;18.93;;;8.20;;
6109;SDS011;3085;49.444;11.054;2023-12-14T08:06:40;22.50;;;7.60;;
6109;SDS011;3085;49.444;11.054;2023-12-14T08:09:07;15.30;;;7.53;;
6109;SDS011;3085;49.444;11.054;2023-12-14T08:11:34;19.40;;;8.40;;
6109;SDS011;3085;49.444;11.054;2023-12-14T08:14:00;28.87;;;7.63;;
6109;SDS011;3085;49.444;11.054;2023-12-14T08:16:28;17.93;;;7.30;;
6109;SDS011;3085;49.444;11.054;2023-12-14T08:18:54;16.23;;;8.40;;
6109;SDS011;3085;49.444;11.054;2023-12-14T08:21:21;25.23;;;7.27;;
6109;SDS011;3085;49.444;11.054;2023-12-14T08:23:49;22.93;;;7.80;;
6109;SDS011;3085;49.444;11.054;2023-12-14T08:26:16;19.30;;;7.67;;
6109;SDS011;3085;49.444;11.054;2023-12-14T08:28:43;16.63;;;7.10;;
6109;SDS011;3085;49.444;11.054;2023-12-14T08:31:09;20.80;;;7.60;;
6109;SDS011;3085;49.444;11.054;2023-12-14T08:33:37;13.80;;;7.00;;
6109;SDS011;3085;49.444;11.054;2023-12-14T08:36:04;19.33;;;6.97;;
6109;SDS011;3085;49.444;11.054;2023-12-14T08:38:31;20.67;;;7.83;;
6109;SDS011;3085;49.444;11.054;2023-12-14T08:40:59;27.70;;;9.70;;
6109;SDS011;3085;49.444;11.054;2023-12-14T08:43:26;26.47;;;7.77;;
6109;SDS011;3085;49.444;11.054;2023-12-14T08:45:52;16.07;;;7.60;;
6109;SDS011;3085;49.444;11.054;2023-12-14T08:48:19;17.63;;;8.23;;
6109;SDS011;3085;49.444;11.054;2023-12-14T08:50:46;20.10;;;7.60;;
6109;SDS011;3085;49.444;11.054;2023-12-14T08:53:13;19.53;;;7.90;;
6109;SDS011;3085;49.444;11.054;2023-12-14T08:55:39;18.00;;;7.97;;
6109;SDS011;3085;49.444;11.054;2023-12-14T08:58:07;19.83;;;7.57;;
6109;SDS011;3085;49.444;11.054;2023-12-14T09:00:34;21.20;;;7.80;;
6109;SDS011;3085;49.444;11.054;2023-12-14T09:03:01;16.17;;;7.13;;
6109;SDS011;3085;49.444;11.054;2023-12-14T09:05:27;16.40;;;7.63;;
6109;SDS011;3085;49.444;11.054;2023-12-14T09:07:54;16.27;;;7.40;;
6109;SDS011;3085;49.444;11.054;2023-12-14T09:10:21;19.97;;;8.40;;
6109;SDS011;3085;49.444;11.054;2023-12-14T09:12:48;17.17;;;7.37;;
6109;SDS011;3085;49.444;11.054;2023-12-14T09:15:16;18.10;;;8.40;;
6109;SDS011;3085;49.444;11.054;2023-12-14T09:17:42;21.90;;;8.10;;
6109;SDS011;3085;49.444;11.054;2023-12-14T09:20:09;12.33;;;5.97;;
6109;SDS011;3085;49.444;11.054;2023-12-14T09:22:37;12.50;;;5.83;;
6109;SDS011;3085;49.444;11.054;2023-12-14T09:25:04;21.10;;;7.57;;
6109;SDS011;3085;49.444;11.054;2023-12-14T09:27:34;17.53;;;7.40;;
6109;SDS011;3085;49.444;11.054;2023-12-14T09:30:00;12.13;;;5.43;;
6109;SDS011;3085;49.444;11.054;2023-12-14T09:32:28;15.57;;;7.20;;
6109;SDS011;3085;49.444;11.054;2023-12-14T09:34:55;14.00;;;6.37;;
6109;SDS011;3085;49.444;11.054;2023-12-14T09:37:22;11.57;;;6.03;;
6109;SDS011;3085;49.444;11.054;2023-12-14T09:39:49;14.80;;;7.70;;
6109;SDS011;3085;49.444;11.054;2023-12-14T09:42:16;14.90;;;6.77;;
6109;SDS011;3085;49.444;11.054;2023-12-14T09:44:45;17.57;;;7.00;;
6109;SDS011;3085;49.444;11.054;2023-12-14T09:47:13;16.00;;;8.00;;
6109;SDS011;3085;49.444;11.054;2023-12-14T09:49:41;17.07;;;6.80;;
6109;SDS011;3085;49.444;11.054;2023-12-14T09:52:09;19.27;;;6.93;;
6109;SDS011;3085;49.444;11.054;2023-12-14T09:54:36;14.67;;;7.90;;
6109;SDS011;3085;49.444;11.054;2023-12-14T09:57:03;14.50;;;6.97;;
6109;SDS011;3085;49.444;11.054;2023-12-14T09:59:30;16.83;;;7.40;;
6109;SDS011;3085;49.444;11.054;2023-12-14T10:02:07;17.43;;;6.40;;
6109;SDS011;3085;49.444;11.054;2023-12-14T10:04:36;11.73;;;6.10;;
6109;SDS011;3085;49.444;11.054;2023-12-14T10:07:04;15.40;;;6.30;;
6109;SDS011;3085;49.444;11.054;2023-12-14T10:09:32;18.90;;;7.40;;
6109;SDS011;3085;49.444;11.054;2023-12-14T10:12:02;11.00;;;5.90;;
6109;SDS011;3085;49.444;11.054;2023-12-14T10:14:30;17.77;;;7.00;;
6109;SDS011;3085;49.444;11.054;2023-12-14T10:16:57;15.53;;;6.47;;
6109;SDS011;3085;49.444;11.054;2023-12-14T10:19:24;9.13;;;5.00;;
6109;SDS011;3085;49.444;11.054;2023-12-14T10:21:51;11.50;;;5.60;;
6109;SDS011;3085;49.444;11.054;2023-12-14T10:24:19;15.20;;;6.87;;
6109;SDS011;3085;49.444;11.054;2023-12-14T10:26:46;26.40;;;7.43;;
6109;SDS011;3085;49.444;11.054;2023-12-14T10:29:13;16.50;;;6.97;;
6109;SDS011;3085;49.444;11.054;2023-12-14T10:31:40;17.27;;;7.70;;
6109;SDS011;3085;49.444;11.054;2023-12-14T10:34:08;15.00;;;6.40;;
6109;SDS011;3085;49.444;11.054;2023-12-14T10:36:37;17.87;;;6.90;;
6109;SDS011;3085;49.444;11.054;2023-12-14T10:39:04;11.10;;;5.97;;
6109;SDS011;3085;49.444;11.054;2023-12-14T10:41:34;15.03;;;6.57;;
6109;SDS011;3085;49.444;11.054;2023-12-14T10:44:03;16.07;;;7.03;;
6109;SDS011;3085;49.444;11.054;2023-12-14T10:46:30;15.40;;;7.47;;
6109;SDS011;3085;49.444;11.054;2023-12-14T10:48:57;17.57;;;6.43;;
6109;SDS011;3085;49.444;11.054;2023-12-14T10:51:26;17.57;;;7.10;;
6109;SDS011;3085;49.444;11.054;2023-12-14T10:53:54;19.80;;;7.80;;
6109;SDS011;3085;49.444;11.054;2023-12-14T10:56:22;13.53;;;6.60;;
6109;SDS011;3085;49.444;11.054;2023-12-14T10:58:52;20.60;;;6.43;;
6109;SDS011;3085;49.444;11.054;2023-12-14T11:01:21;11.80;;;5.83;;
6109;SDS011;3085;49.444;11.054;2023-12-14T11:03:49;13.30;;;6.77;;
6109;SDS011;3085;49.444;11.054;2023-12-14T11:06:21;15.97;;;5.90;;
6109;SDS011;3085;49.444;11.054;2023-12-14T11:08:57;15.07;;;6.33;;
6109;SDS011;3085;49.444;11.054;2023-12-14T11:11:29;14.47;;;6.23;;
6109;SDS011;3085;49.444;11.054;2023-12-14T11:13:57;14.07;;;5.47;;
6109;SDS011;3085;49.444;11.054;2023-12-14T11:16:25;11.90;;;6.20;;
6109;SDS011;3085;49.444;11.054;2023-12-14T11:19:23;14.70;;;6.13;;
6109;SDS011;3085;49.444;11.054;2023-12-14T11:22:10;14.47;;;5.90;;
6109;SDS011;3085;49.444;11.054;2023-12-14T11:24:50;14.60;;;5.30;;
6109;SDS011;3085;49.444;11.054;2023-12-14T11:27:19;17.77;;;6.87;;
6109;SDS011;3085;49.444;11.054;2023-12-14T11:29:48;14.93;;;6.47;;
6109;SDS011;3085;49.444;11.054;2023-12-14T11:32:16;12.07;;;5.77;;
6109;SDS011;3085;49.444;11.054;2023-12-14T11:34:43;16.07;;;5.00;;
6109;SDS011;3085;49.444;11.054;2023-12-14T11:37:12;13.57;;;5.10;;
6109;SDS011;3085;49.444;11.054;2023-12-14T11:39:38;11.67;;;5.70;;
6109;SDS011;3085;49.444;11.054;2023-12-14T11:42:05;10.47;;;5.60;;
6109;SDS011;3085;49.444;11.054;2023-12-14T11:44:33;10.93;;;5.07;;
6109;SDS011;3085;49.444;11.054;2023-12-14T11:47:03;13.13;;;5.43;;
6109;SDS011;3085;49.444;11.054;2023-12-14T11:49:29;16.93;;;5.17;;
6109;SDS011;3085;49.444;11.054;2023-12-14T11:51:57;14.30;;;6.07;;
6109;SDS011;3085;49.444;11.054;2023-12-14T11:54:24;13.80;;;5.37;;
6109;SDS011;3085;49.444;11.054;2023-12-14T11:56:51;12.47;;;5.80;;
6109;SDS011;3085;49.444;11.054;2023-12-14T11:59:19;11.80;;;6.40;;
6109;SDS011;3085;49.444;11.054;2023-12-14T12:01:55;7.90;;;5.13;;
6109;SDS011;3085;49.444;11.054;2023-12-14T12:04:25;10.30;;;5.63;;
6109;SDS011;3085;49.444;11.054;2023-12-14T12:06:58;12.87;;;5.40;;
6109;SDS011;3085;49.444;11.054;2023-12-14T12:09:35;7.73;;;4.50;;
6109;SDS011;3085;49.444;11.054;2023-12-14T12:12:06;7.03;;;4.27;;
6109;SDS011;3085;49.444;11.054;2023-12-14T12:14:34;10.13;;;5.20;;
6109;SDS011;3085;49.444;11.054;2023-12-14T12:17:02;14.40;;;5.40;;
6109;SDS011;3085;49.444;11.054;2023-12-14T12:19:32;12.23;;;4.80;;
6109;SDS011;3085;49.444;11.054;2023-12-14T12:21:59;9.87;;;4.83;;
6109;SDS011;3085;49.444;11.054;2023-12-14T12:24:25;11.40;;;4.77;;
6109;SDS011;3085;49.444;11.054;2023-12-14T12:26:52;21.60;;;5.10;;
6109;SDS011;3085;49.444;11.054;2023-12-14T12:29:19;23.80;;;4.40;;
6109;SDS011;3085;49.444;11.054;2023-12-14T12:31:46;20.30;;;4.63;;
6109;SDS011;3085;49.444;11.054;2023-12-14T12:34:12;11.37;;;5.10;;
6109;SDS011;3085;49.444;11.054;2023-12-14T12:36:40;10.50;;;4.30;;
6109;SDS011;3085;49.444;11.054;2023-12-14T12:39:07;13.20;;;5.10;;
6109;SDS011;3085;49.444;11.054;2023-12-14T12:41:34;10.17;;;5.20;;
6109;SDS011;3085;49.444;11.054;2023-12-14T12:44:02;8.73;;;4.47;;
6109;SDS011;3085;49.444;11.054;2023-12-14T12:46:31;12.63;;;5.13;;
6109;SDS011;3085;49.444;11.054;2023-12-14T12:48:58;10.47;;;4.77;;
6109;SDS011;3085;49.444;11.054;2023-12-14T12:51:26;8.30;;;5.37;;
6109;SDS011;3085;49.444;11.054;2023-12-14T12:53:54;9.03;;;4.20;;
6109;SDS011;3085;49.444;11.054;2023-12-14T12:56:22;9.87;;;4.67;;
6109;SDS011;3085;49.444;11.054;2023-12-14T12:58:49;15.30;;;5.80;;
6109;SDS011;3085;49.444;11.054;2023-12-14T13:01:18;16.13;;;5.50;;
6109;SDS011;3085;49.444;11.054;2023-12-14T13:03:46;11.70;;;5.53;;
6109;SDS011;3085;49.444;11.054;2023-12-14T13:06:12;14.13;;;5.80;;
6109;SDS011;3085;49.444;11.054;2023-12-14T13:08:39;12.43;;;5.50;;
6109;SDS011;3085;49.444;11.054;2023-12-14T13:11:07;21.23;;;5.40;;
6109;SDS011;3085;49.444;11.054;2023-12-14T13:13:34;10.37;;;4.70;;
6109;SDS011;3085;49.444;11.054;2023-12-14T13:16:00;11.97;;;6.17;;
6109;SDS011;3085;49.444;11.054;2023-12-14T13:18:27;16.73;;;6.73;;
6109;SDS011;3085;49.444;11.054;2023-12-14T13:20:54;13.37;;;6.00;;
6109;SDS011;3085;49.444;11.054;2023-12-14T13:23:21;10.30;;;5.83;;
6109;SDS011;3085;49.444;11.054;2023-12-14T13:25:49;12.60;;;5.73;;
6109;SDS011;3085;49.444;11.054;2023-12-14T13:28:17;11.33;;;5.97;;
6109;SDS011;3085;49.444;11.054;2023-12-14T13:30:43;12.83;;;5.93;;
6109;SDS011;3085;49.444;11.054;2023-12-14T13:33:11;9.13;;;4.80;;
6109;SDS011;3085;49.444;11.054;2023-12-14T13:35:37;23.53;;;5.60;;
6109;SDS011;3085;49.444;11.054;2023-12-14T13:38:04;14.33;;;5.67;;
6109;SDS011;3085;49.444;11.054;2023-12-14T13:40:31;22.33;;;6.07;;
6109;SDS011;3085;49.444;11.054;2023-12-14T13:42:57;15.70;;;6.10;;
6109;SDS011;3085;49.444;11.054;2023-12-14T13:45:30;15.63;;;5.40;;
6109;SDS011;3085;49.444;11.054;2023-12-14T13:47:59;14.10;;;6.00;;
6109;SDS011;3085;49.444;11.054;2023-12-14T13:50:26;12.90;;;5.67;;
6109;SDS011;3085;49.444;11.054;2023-12-14T13:52:53;11.27;;;4.90;;
6109;SDS011;3085;49.444;11.054;2023-12-14T13:55:20;9.13;;;4.87;;
6109;SDS011;3085;49.444;11.054;2023-12-14T13:57:48;9.53;;;4.87;;
6109;SDS011;3085;49.444;11.054;2023-12-14T14:00:17;9.43;;;4.50;;
6109;SDS011;3085;49.444;11.054;2023-12-14T14:02:46;9.10;;;4.47;;
6109;SDS011;3085;49.444;11.054;2023-12-14T14:05:16;12.70;;;4.80;;
6109;SDS011;3085;49.444;11.054;2023-12-14T14:07:43;9.80;;;3.90;;
6109;SDS011;3085;49.444;11.054;2023-12-14T14:10:10;7.27;;;3.40;;
6109;SDS011;3085;49.444;11.054;2023-12-14T14:12:37;5.70;;;3.57;;
6109;SDS011;3085;49.444;11.054;2023-12-14T14:15:05;6.90;;;2.83;;
6109;SDS011;3085;49.444;11.054;2023-12-14T14:17:32;7.03;;;3.27;;
6109;SDS011;3085;49.444;11.054;2023-12-14T14:20:00;5.27;;;2.70;;
6109;SDS011;3085;49.444;11.054;2023-12-14T14:22:27;7.03;;;3.60;;
6109;SDS011;3085;49.444;11.054;2023-12-14T14:24:54;8.70;;;3.43;;
6109;SDS011;3085;49.444;11.054;2023-12-14T14:27:21;3.57;;;2.30;;
6109;SDS011;3085;49.444;11.054;2023-12-14T14:29:49;3.93;;;2.63;;
6109;SDS011;3085;49.444;11.054;2023-12-14T14:32:19;7.43;;;3.57;;
6109;SDS011;3085;49.444;11.054;2023-12-14T14:34:45;7.07;;;3.30;;
6109;SDS011;3085;49.444;11.054;2023-12-14T14:37:14;4.57;;;2.57;;
6109;SDS011;3085;49.444;11.054;2023-12-14T14:39:42;4.10;;;2.83;;
6109;SDS011;3085;49.444;11.054;2023-12-14T14:42:09;4.77;;;2.50;;
6109;SDS011;3085;49.444;11.054;2023-12-14T14:44:42;4.67;;;2.90;;
6109;SDS011;3085;49.444;11.054;2023-12-14T14:47:20;5.47;;;2.63;;
6109;SDS011;3085;49.444;11.054;2023-12-14T14:49:48;14.50;;;3.13;;
6109;SDS011;3085;49.444;11.054;2023-12-14T14:52:17;5.50;;;3.10;;